Port Matilda, Pennsylvania
Current Conditions -  °F | °C
As of 10:53 AM on Saturday 20 Dec 2014 (Local Time) from KUNV Reporting Station
Overcast Overcast  
Wind Chill: 20°   Ceiling: 1700
Heat Index: 27°   Visibility: 10mi
Dew Point: 19°   Wind: 6mph
Humidity: 74%   Direction: 320°NW
Pressure: 30.24"   Gusts: NA
Location:  40.8°N, 78.05°W
Report Text: KUNV 201553Z 32005KT 10SM OVC017 M03/M07 A3024
Loading
Personal Weather Stations






























Interactive Weather Map New forecast layout! Learn more

10-Day Weather Forecast

Advertisements
Track Severe Weather on mobile